sensor_id;sensor_type;location;lat;lon;timestamp;P1;durP1;ratioP1;P2;durP2;ratioP2
28003;SDS011;15330;51.234;6.754;2022-07-15T00:00:38;6.18;;;3.10;;
28003;SDS011;15330;51.234;6.754;2022-07-15T00:03:04;5.88;;;2.60;;
28003;SDS011;15330;51.234;6.754;2022-07-15T00:05:29;11.43;;;3.38;;
28003;SDS011;15330;51.234;6.754;2022-07-15T00:07:55;9.32;;;3.17;;
28003;SDS011;15330;51.234;6.754;2022-07-15T00:10:23;10.30;;;3.28;;
28003;SDS011;15330;51.234;6.754;2022-07-15T00:12:59;8.70;;;3.15;;
28003;SDS011;15330;51.234;6.754;2022-07-15T00:15:26;9.50;;;2.97;;
28003;SDS011;15330;51.234;6.754;2022-07-15T00:17:53;12.63;;;3.55;;
28003;SDS011;15330;51.234;6.754;2022-07-15T00:20:20;12.57;;;4.50;;
28003;SDS011;15330;51.234;6.754;2022-07-15T00:22:46;9.40;;;3.45;;
28003;SDS011;15330;51.234;6.754;2022-07-15T00:25:11;10.38;;;3.17;;
28003;SDS011;15330;51.234;6.754;2022-07-15T00:27:51;9.05;;;3.85;;
28003;SDS011;15330;51.234;6.754;2022-07-15T00:30:19;8.85;;;3.38;;
28003;SDS011;15330;51.234;6.754;2022-07-15T00:32:45;6.65;;;3.58;;
28003;SDS011;15330;51.234;6.754;2022-07-15T00:35:11;10.38;;;3.20;;
28003;SDS011;15330;51.234;6.754;2022-07-15T00:37:37;13.63;;;3.40;;
28003;SDS011;15330;51.234;6.754;2022-07-15T00:40:02;7.60;;;3.05;;
28003;SDS011;15330;51.234;6.754;2022-07-15T00:42:28;11.32;;;4.68;;
28003;SDS011;15330;51.234;6.754;2022-07-15T00:45:09;7.40;;;3.30;;
28003;SDS011;15330;51.234;6.754;2022-07-15T00:47:39;7.95;;;3.42;;
28003;SDS011;15330;51.234;6.754;2022-07-15T00:50:16;10.18;;;3.00;;
28003;SDS011;15330;51.234;6.754;2022-07-15T00:52:43;10.68;;;3.25;;
28003;SDS011;15330;51.234;6.754;2022-07-15T00:55:13;12.90;;;3.22;;
28003;SDS011;15330;51.234;6.754;2022-07-15T00:57:43;7.47;;;3.03;;
28003;SDS011;15330;51.234;6.754;2022-07-15T01:00:10;28.48;;;13.05;;
28003;SDS011;15330;51.234;6.754;2022-07-15T01:02:37;14.43;;;6.22;;
28003;SDS011;15330;51.234;6.754;2022-07-15T01:05:09;14.45;;;6.15;;
28003;SDS011;15330;51.234;6.754;2022-07-15T01:07:36;12.18;;;3.75;;
28003;SDS011;15330;51.234;6.754;2022-07-15T01:12:41;18.45;;;5.55;;
28003;SDS011;15330;51.234;6.754;2022-07-15T01:15:16;15.88;;;5.15;;
28003;SDS011;15330;51.234;6.754;2022-07-15T01:17:45;12.65;;;3.28;;
28003;SDS011;15330;51.234;6.754;2022-07-15T01:20:17;10.38;;;3.25;;
28003;SDS011;15330;51.234;6.754;2022-07-15T01:22:42;10.23;;;3.28;;
28003;SDS011;15330;51.234;6.754;2022-07-15T01:25:08;10.18;;;3.25;;
28003;SDS011;15330;51.234;6.754;2022-07-15T01:27:33;13.23;;;4.10;;
28003;SDS011;15330;51.234;6.754;2022-07-15T01:29:59;10.20;;;4.13;;
28003;SDS011;15330;51.234;6.754;2022-07-15T01:32:25;9.60;;;4.00;;
28003;SDS011;15330;51.234;6.754;2022-07-15T01:34:51;7.78;;;2.92;;
28003;SDS011;15330;51.234;6.754;2022-07-15T01:37:17;10.90;;;3.15;;
28003;SDS011;15330;51.234;6.754;2022-07-15T01:39:43;8.98;;;3.50;;
28003;SDS011;15330;51.234;6.754;2022-07-15T01:42:09;11.07;;;3.83;;
28003;SDS011;15330;51.234;6.754;2022-07-15T01:44:35;13.73;;;4.25;;
28003;SDS011;15330;51.234;6.754;2022-07-15T01:47:01;11.77;;;4.20;;
28003;SDS011;15330;51.234;6.754;2022-07-15T01:49:26;8.10;;;3.72;;
28003;SDS011;15330;51.234;6.754;2022-07-15T01:51:55;10.15;;;3.67;;
28003;SDS011;15330;51.234;6.754;2022-07-15T01:54:25;8.75;;;3.45;;
28003;SDS011;15330;51.234;6.754;2022-07-15T01:56:52;11.73;;;4.00;;
28003;SDS011;15330;51.234;6.754;2022-07-15T01:59:19;8.85;;;4.18;;
28003;SDS011;15330;51.234;6.754;2022-07-15T02:01:47;12.10;;;3.38;;
28003;SDS011;15330;51.234;6.754;2022-07-15T02:04:14;9.23;;;3.10;;
28003;SDS011;15330;51.234;6.754;2022-07-15T02:06:39;9.23;;;3.35;;
28003;SDS011;15330;51.234;6.754;2022-07-15T02:09:05;8.85;;;3.28;;
28003;SDS011;15330;51.234;6.754;2022-07-15T02:11:31;10.85;;;3.03;;
28003;SDS011;15330;51.234;6.754;2022-07-15T02:13:56;14.95;;;3.70;;
28003;SDS011;15330;51.234;6.754;2022-07-15T02:16:24;13.43;;;3.75;;
28003;SDS011;15330;51.234;6.754;2022-07-15T02:18:50;17.95;;;3.95;;
28003;SDS011;15330;51.234;6.754;2022-07-15T02:21:16;9.20;;;3.33;;
28003;SDS011;15330;51.234;6.754;2022-07-15T02:23:42;8.90;;;3.45;;
28003;SDS011;15330;51.234;6.754;2022-07-15T02:26:08;9.63;;;3.78;;
28003;SDS011;15330;51.234;6.754;2022-07-15T02:28:33;9.13;;;3.30;;
28003;SDS011;15330;51.234;6.754;2022-07-15T02:30:58;8.45;;;3.15;;
28003;SDS011;15330;51.234;6.754;2022-07-15T02:33:24;13.77;;;3.85;;
28003;SDS011;15330;51.234;6.754;2022-07-15T02:35:49;15.43;;;3.15;;
28003;SDS011;15330;51.234;6.754;2022-07-15T02:38:15;8.93;;;3.13;;
28003;SDS011;15330;51.234;6.754;2022-07-15T02:40:42;9.85;;;3.35;;
28003;SDS011;15330;51.234;6.754;2022-07-15T02:43:08;10.35;;;3.60;;
28003;SDS011;15330;51.234;6.754;2022-07-15T02:45:34;13.65;;;3.83;;
28003;SDS011;15330;51.234;6.754;2022-07-15T02:48:01;10.30;;;3.40;;
28003;SDS011;15330;51.234;6.754;2022-07-15T02:50:27;7.95;;;3.33;;
28003;SDS011;15330;51.234;6.754;2022-07-15T02:52:53;8.38;;;3.85;;
28003;SDS011;15330;51.234;6.754;2022-07-15T02:55:18;12.40;;;3.40;;
28003;SDS011;15330;51.234;6.754;2022-07-15T02:57:44;11.95;;;4.03;;
28003;SDS011;15330;51.234;6.754;2022-07-15T03:00:10;9.82;;;3.83;;
28003;SDS011;15330;51.234;6.754;2022-07-15T03:02:37;11.40;;;3.60;;
28003;SDS011;15330;51.234;6.754;2022-07-15T03:05:04;8.30;;;3.63;;
28003;SDS011;15330;51.234;6.754;2022-07-15T03:07:30;9.38;;;3.65;;
28003;SDS011;15330;51.234;6.754;2022-07-15T03:09:55;11.75;;;4.50;;
28003;SDS011;15330;51.234;6.754;2022-07-15T03:12:21;14.48;;;3.92;;
28003;SDS011;15330;51.234;6.754;2022-07-15T03:14:47;10.48;;;3.55;;
28003;SDS011;15330;51.234;6.754;2022-07-15T03:17:12;13.80;;;4.13;;
28003;SDS011;15330;51.234;6.754;2022-07-15T03:19:38;11.20;;;3.20;;
28003;SDS011;15330;51.234;6.754;2022-07-15T03:22:03;12.07;;;4.47;;
28003;SDS011;15330;51.234;6.754;2022-07-15T03:24:29;10.30;;;3.03;;
28003;SDS011;15330;51.234;6.754;2022-07-15T03:26:54;10.77;;;3.70;;
28003;SDS011;15330;51.234;6.754;2022-07-15T03:29:20;9.45;;;3.25;;
28003;SDS011;15330;51.234;6.754;2022-07-15T03:31:45;13.85;;;3.85;;
28003;SDS011;15330;51.234;6.754;2022-07-15T03:34:11;6.82;;;3.50;;
28003;SDS011;15330;51.234;6.754;2022-07-15T03:36:37;12.05;;;4.22;;
28003;SDS011;15330;51.234;6.754;2022-07-15T03:39:04;9.07;;;3.85;;
28003;SDS011;15330;51.234;6.754;2022-07-15T03:41:30;10.70;;;4.57;;
28003;SDS011;15330;51.234;6.754;2022-07-15T03:43:55;9.88;;;3.67;;
28003;SDS011;15330;51.234;6.754;2022-07-15T03:46:21;10.32;;;3.78;;
28003;SDS011;15330;51.234;6.754;2022-07-15T03:48:46;15.07;;;4.38;;
28003;SDS011;15330;51.234;6.754;2022-07-15T03:51:12;12.45;;;3.63;;
28003;SDS011;15330;51.234;6.754;2022-07-15T03:53:38;11.93;;;3.63;;
28003;SDS011;15330;51.234;6.754;2022-07-15T03:56:03;9.32;;;4.13;;
28003;SDS011;15330;51.234;6.754;2022-07-15T03:58:29;8.82;;;4.00;;
28003;SDS011;15330;51.234;6.754;2022-07-15T04:00:54;12.43;;;4.22;;
28003;SDS011;15330;51.234;6.754;2022-07-15T04:03:19;10.60;;;3.78;;
28003;SDS011;15330;51.234;6.754;2022-07-15T04:05:45;16.95;;;3.47;;
28003;SDS011;15330;51.234;6.754;2022-07-15T04:08:10;13.43;;;4.07;;
28003;SDS011;15330;51.234;6.754;2022-07-15T04:10:35;11.95;;;3.50;;
28003;SDS011;15330;51.234;6.754;2022-07-15T04:13:01;10.95;;;3.42;;
28003;SDS011;15330;51.234;6.754;2022-07-15T04:15:27;8.70;;;3.67;;
28003;SDS011;15330;51.234;6.754;2022-07-15T04:17:53;11.00;;;3.65;;
28003;SDS011;15330;51.234;6.754;2022-07-15T04:20:19;7.22;;;3.35;;
28003;SDS011;15330;51.234;6.754;2022-07-15T04:22:44;10.48;;;3.50;;
28003;SDS011;15330;51.234;6.754;2022-07-15T04:25:14;7.57;;;3.90;;
28003;SDS011;15330;51.234;6.754;2022-07-15T04:27:41;12.05;;;4.60;;
28003;SDS011;15330;51.234;6.754;2022-07-15T04:30:07;11.25;;;4.45;;
28003;SDS011;15330;51.234;6.754;2022-07-15T04:32:34;9.27;;;3.70;;
28003;SDS011;15330;51.234;6.754;2022-07-15T04:34:59;19.67;;;4.55;;
28003;SDS011;15330;51.234;6.754;2022-07-15T04:37:25;14.52;;;4.68;;
28003;SDS011;15330;51.234;6.754;2022-07-15T04:39:50;16.83;;;6.28;;
28003;SDS011;15330;51.234;6.754;2022-07-15T04:42:15;16.63;;;8.27;;
28003;SDS011;15330;51.234;6.754;2022-07-15T04:44:41;12.02;;;4.35;;
28003;SDS011;15330;51.234;6.754;2022-07-15T04:47:06;14.98;;;7.05;;
28003;SDS011;15330;51.234;6.754;2022-07-15T04:49:32;14.52;;;4.68;;
28003;SDS011;15330;51.234;6.754;2022-07-15T04:52:23;9.90;;;4.78;;
28003;SDS011;15330;51.234;6.754;2022-07-15T04:54:52;13.52;;;4.30;;
28003;SDS011;15330;51.234;6.754;2022-07-15T04:57:18;9.35;;;3.72;;
28003;SDS011;15330;51.234;6.754;2022-07-15T04:59:44;7.97;;;4.28;;
28003;SDS011;15330;51.234;6.754;2022-07-15T05:02:09;9.43;;;3.90;;
28003;SDS011;15330;51.234;6.754;2022-07-15T05:04:34;9.65;;;3.90;;
28003;SDS011;15330;51.234;6.754;2022-07-15T05:07:00;13.73;;;3.47;;
28003;SDS011;15330;51.234;6.754;2022-07-15T05:09:26;8.95;;;3.10;;
28003;SDS011;15330;51.234;6.754;2022-07-15T05:11:51;11.10;;;3.78;;
28003;SDS011;15330;51.234;6.754;2022-07-15T05:14:17;14.30;;;4.38;;
28003;SDS011;15330;51.234;6.754;2022-07-15T05:16:42;14.68;;;5.20;;
28003;SDS011;15330;51.234;6.754;2022-07-15T05:19:08;13.95;;;5.38;;
28003;SDS011;15330;51.234;6.754;2022-07-15T05:21:33;15.27;;;4.55;;
28003;SDS011;15330;51.234;6.754;2022-07-15T05:23:58;6.20;;;3.72;;
28003;SDS011;15330;51.234;6.754;2022-07-15T05:26:24;11.98;;;4.00;;
28003;SDS011;15330;51.234;6.754;2022-07-15T05:28:49;16.13;;;5.18;;
28003;SDS011;15330;51.234;6.754;2022-07-15T05:31:15;15.52;;;6.35;;
28003;SDS011;15330;51.234;6.754;2022-07-15T05:33:40;11.13;;;4.10;;
28003;SDS011;15330;51.234;6.754;2022-07-15T05:36:10;19.58;;;6.88;;
28003;SDS011;15330;51.234;6.754;2022-07-15T05:38:37;13.65;;;4.80;;
28003;SDS011;15330;51.234;6.754;2022-07-15T05:41:02;18.77;;;6.47;;
28003;SDS011;15330;51.234;6.754;2022-07-15T05:43:28;13.52;;;5.22;;
28003;SDS011;15330;51.234;6.754;2022-07-15T05:45:53;13.40;;;5.28;;
28003;SDS011;15330;51.234;6.754;2022-07-15T05:48:18;14.30;;;5.07;;
28003;SDS011;15330;51.234;6.754;2022-07-15T05:50:44;16.30;;;4.43;;
28003;SDS011;15330;51.234;6.754;2022-07-15T05:53:09;14.93;;;5.68;;
28003;SDS011;15330;51.234;6.754;2022-07-15T05:55:34;17.20;;;5.72;;
28003;SDS011;15330;51.234;6.754;2022-07-15T05:58:00;16.88;;;5.15;;
28003;SDS011;15330;51.234;6.754;2022-07-15T06:00:25;26.55;;;13.18;;
28003;SDS011;15330;51.234;6.754;2022-07-15T06:02:51;11.95;;;5.53;;
28003;SDS011;15330;51.234;6.754;2022-07-15T06:05:16;14.90;;;5.10;;
28003;SDS011;15330;51.234;6.754;2022-07-15T06:07:43;15.18;;;5.60;;
28003;SDS011;15330;51.234;6.754;2022-07-15T06:10:08;13.90;;;5.07;;
28003;SDS011;15330;51.234;6.754;2022-07-15T06:12:34;18.45;;;7.03;;
28003;SDS011;15330;51.234;6.754;2022-07-15T06:14:59;21.13;;;7.07;;
28003;SDS011;15330;51.234;6.754;2022-07-15T06:17:24;11.88;;;5.50;;
28003;SDS011;15330;51.234;6.754;2022-07-15T06:19:50;16.75;;;5.65;;
28003;SDS011;15330;51.234;6.754;2022-07-15T06:22:16;16.20;;;6.35;;
28003;SDS011;15330;51.234;6.754;2022-07-15T06:24:41;14.23;;;5.32;;
28003;SDS011;15330;51.234;6.754;2022-07-15T06:27:06;16.35;;;5.90;;
28003;SDS011;15330;51.234;6.754;2022-07-15T06:29:32;18.23;;;4.78;;
28003;SDS011;15330;51.234;6.754;2022-07-15T06:31:57;14.48;;;4.97;;
28003;SDS011;15330;51.234;6.754;2022-07-15T06:34:23;18.13;;;5.50;;
28003;SDS011;15330;51.234;6.754;2022-07-15T06:36:49;12.52;;;5.60;;
28003;SDS011;15330;51.234;6.754;2022-07-15T06:39:15;17.08;;;5.18;;
28003;SDS011;15330;51.234;6.754;2022-07-15T06:41:41;13.90;;;5.28;;
28003;SDS011;15330;51.234;6.754;2022-07-15T06:44:07;15.38;;;5.78;;
28003;SDS011;15330;51.234;6.754;2022-07-15T06:46:32;18.52;;;5.80;;
28003;SDS011;15330;51.234;6.754;2022-07-15T06:48:57;14.32;;;6.05;;
28003;SDS011;15330;51.234;6.754;2022-07-15T06:51:23;15.00;;;5.50;;
28003;SDS011;15330;51.234;6.754;2022-07-15T06:53:49;14.80;;;6.80;;
28003;SDS011;15330;51.234;6.754;2022-07-15T06:56:14;17.75;;;6.03;;
28003;SDS011;15330;51.234;6.754;2022-07-15T06:58:40;14.88;;;6.75;;
28003;SDS011;15330;51.234;6.754;2022-07-15T07:01:05;14.57;;;4.85;;
28003;SDS011;15330;51.234;6.754;2022-07-15T07:03:30;14.05;;;4.57;;
28003;SDS011;15330;51.234;6.754;2022-07-15T07:05:56;15.88;;;4.57;;
28003;SDS011;15330;51.234;6.754;2022-07-15T07:08:22;18.10;;;8.60;;
28003;SDS011;15330;51.234;6.754;2022-07-15T07:10:48;8.80;;;3.40;;
28003;SDS011;15330;51.234;6.754;2022-07-15T07:13:14;12.27;;;4.07;;
28003;SDS011;15330;51.234;6.754;2022-07-15T07:15:39;14.27;;;4.15;;
28003;SDS011;15330;51.234;6.754;2022-07-15T07:18:05;10.15;;;3.33;;
28003;SDS011;15330;51.234;6.754;2022-07-15T07:20:30;9.48;;;2.85;;
28003;SDS011;15330;51.234;6.754;2022-07-15T07:22:56;9.77;;;4.40;;
28003;SDS011;15330;51.234;6.754;2022-07-15T07:25:22;14.52;;;7.03;;
28003;SDS011;15330;51.234;6.754;2022-07-15T07:27:48;10.80;;;2.92;;
28003;SDS011;15330;51.234;6.754;2022-07-15T07:30:13;9.25;;;4.38;;
28003;SDS011;15330;51.234;6.754;2022-07-15T07:32:39;10.15;;;2.90;;
28003;SDS011;15330;51.234;6.754;2022-07-15T07:35:04;10.68;;;2.95;;
28003;SDS011;15330;51.234;6.754;2022-07-15T07:37:34;12.68;;;3.22;;
28003;SDS011;15330;51.234;6.754;2022-07-15T07:40:00;5.75;;;2.55;;
28003;SDS011;15330;51.234;6.754;2022-07-15T07:42:26;10.27;;;2.80;;
28003;SDS011;15330;51.234;6.754;2022-07-15T07:44:52;10.95;;;4.00;;
28003;SDS011;15330;51.234;6.754;2022-07-15T07:47:17;9.85;;;3.10;;
28003;SDS011;15330;51.234;6.754;2022-07-15T07:49:43;9.52;;;2.95;;
28003;SDS011;15330;51.234;6.754;2022-07-15T07:52:09;7.65;;;3.03;;
28003;SDS011;15330;51.234;6.754;2022-07-15T07:54:35;9.70;;;2.40;;
28003;SDS011;15330;51.234;6.754;2022-07-15T07:57:01;5.82;;;2.90;;
28003;SDS011;15330;51.234;6.754;2022-07-15T07:59:26;9.35;;;2.15;;
28003;SDS011;15330;51.234;6.754;2022-07-15T08:01:52;8.98;;;2.40;;
28003;SDS011;15330;51.234;6.754;2022-07-15T08:04:17;9.88;;;2.67;;
28003;SDS011;15330;51.234;6.754;2022-07-15T08:06:42;4.38;;;2.50;;
28003;SDS011;15330;51.234;6.754;2022-07-15T08:09:08;7.70;;;2.35;;
28003;SDS011;15330;51.234;6.754;2022-07-15T08:11:33;4.75;;;2.00;;
28003;SDS011;15330;51.234;6.754;2022-07-15T08:13:59;5.43;;;2.85;;
28003;SDS011;15330;51.234;6.754;2022-07-15T08:16:24;6.15;;;1.58;;
28003;SDS011;15330;51.234;6.754;2022-07-15T08:18:50;4.40;;;1.63;;
28003;SDS011;15330;51.234;6.754;2022-07-15T08:21:16;4.00;;;1.38;;
28003;SDS011;15330;51.234;6.754;2022-07-15T08:23:41;6.32;;;1.85;;
28003;SDS011;15330;51.234;6.754;2022-07-15T08:26:07;5.90;;;1.65;;
28003;SDS011;15330;51.234;6.754;2022-07-15T08:28:33;7.05;;;1.80;;
28003;SDS011;15330;51.234;6.754;2022-07-15T08:30:59;3.03;;;1.30;;
28003;SDS011;15330;51.234;6.754;2022-07-15T08:33:24;5.53;;;1.40;;
28003;SDS011;15330;51.234;6.754;2022-07-15T08:35:50;5.15;;;1.27;;
28003;SDS011;15330;51.234;6.754;2022-07-15T08:38:15;7.72;;;1.67;;
28003;SDS011;15330;51.234;6.754;2022-07-15T08:40:41;7.00;;;1.70;;
28003;SDS011;15330;51.234;6.754;2022-07-15T08:43:09;4.18;;;1.52;;
28003;SDS011;15330;51.234;6.754;2022-07-15T08:45:36;3.60;;;1.63;;
28003;SDS011;15330;51.234;6.754;2022-07-15T08:48:03;3.70;;;1.20;;
28003;SDS011;15330;51.234;6.754;2022-07-15T08:50:30;4.15;;;1.15;;
28003;SDS011;15330;51.234;6.754;2022-07-15T08:52:56;7.13;;;1.30;;
28003;SDS011;15330;51.234;6.754;2022-07-15T08:55:23;2.70;;;1.08;;
28003;SDS011;15330;51.234;6.754;2022-07-15T08:57:49;4.35;;;1.23;;
28003;SDS011;15330;51.234;6.754;2022-07-15T09:00:17;5.40;;;1.38;;
28003;SDS011;15330;51.234;6.754;2022-07-15T09:02:44;5.35;;;1.20;;
28003;SDS011;15330;51.234;6.754;2022-07-15T09:05:21;10.77;;;1.40;;
28003;SDS011;15330;51.234;6.754;2022-07-15T09:07:59;4.43;;;1.45;;
28003;SDS011;15330;51.234;6.754;2022-07-15T09:10:40;3.90;;;1.02;;
28003;SDS011;15330;51.234;6.754;2022-07-15T09:13:12;6.38;;;1.55;;
28003;SDS011;15330;51.234;6.754;2022-07-15T09:15:40;4.88;;;1.40;;
28003;SDS011;15330;51.234;6.754;2022-07-15T09:20:39;2.65;;;1.15;;
28003;SDS011;15330;51.234;6.754;2022-07-15T09:23:06;10.55;;;1.67;;
28003;SDS011;15330;51.234;6.754;2022-07-15T09:25:32;5.65;;;1.27;;
28003;SDS011;15330;51.234;6.754;2022-07-15T09:27:59;5.63;;;1.58;;
28003;SDS011;15330;51.234;6.754;2022-07-15T09:30:28;5.97;;;3.30;;
28003;SDS011;15330;51.234;6.754;2022-07-15T09:33:15;6.15;;;2.03;;
28003;SDS011;15330;51.234;6.754;2022-07-15T09:40:57;6.80;;;1.27;;
28003;SDS011;15330;51.234;6.754;2022-07-15T09:43:23;5.50;;;2.00;;
28003;SDS011;15330;51.234;6.754;2022-07-15T09:45:56;5.28;;;1.42;;
28003;SDS011;15330;51.234;6.754;2022-07-15T09:48:25;2.47;;;1.02;;
28003;SDS011;15330;51.234;6.754;2022-07-15T09:50:58;5.97;;;1.35;;
28003;SDS011;15330;51.234;6.754;2022-07-15T09:53:24;7.28;;;1.48;;
28003;SDS011;15330;51.234;6.754;2022-07-15T09:55:50;3.17;;;1.55;;
28003;SDS011;15330;51.234;6.754;2022-07-15T09:58:18;6.22;;;1.48;;
28003;SDS011;15330;51.234;6.754;2022-07-15T10:00:44;5.60;;;1.35;;
28003;SDS011;15330;51.234;6.754;2022-07-15T10:03:10;3.63;;;1.48;;
28003;SDS011;15330;51.234;6.754;2022-07-15T10:05:36;5.68;;;1.67;;
28003;SDS011;15330;51.234;6.754;2022-07-15T10:08:04;1.65;;;1.02;;
28003;SDS011;15330;51.234;6.754;2022-07-15T10:10:31;6.18;;;1.50;;
28003;SDS011;15330;51.234;6.754;2022-07-15T10:23:42;6.03;;;3.13;;
28003;SDS011;15330;51.234;6.754;2022-07-15T10:29:08;5.57;;;2.25;;
28003;SDS011;15330;51.234;6.754;2022-07-15T10:31:36;8.48;;;3.45;;
28003;SDS011;15330;51.234;6.754;2022-07-15T10:39:15;2.20;;;1.20;;
28003;SDS011;15330;51.234;6.754;2022-07-15T10:41:58;2.63;;;1.25;;
28003;SDS011;15330;51.234;6.754;2022-07-15T10:44:31;7.70;;;1.90;;
28003;SDS011;15330;51.234;6.754;2022-07-15T10:49:40;6.78;;;1.85;;
28003;SDS011;15330;51.234;6.754;2022-07-15T10:54:43;2.83;;;1.52;;
28003;SDS011;15330;51.234;6.754;2022-07-15T10:57:13;4.68;;;1.10;;
28003;SDS011;15330;51.234;6.754;2022-07-15T10:59:52;6.97;;;1.80;;
28003;SDS011;15330;51.234;6.754;2022-07-15T11:02:19;3.95;;;1.10;;
28003;SDS011;15330;51.234;6.754;2022-07-15T11:04:46;3.33;;;1.50;;
28003;SDS011;15330;51.234;6.754;2022-07-15T11:15:00;4.47;;;1.10;;
28003;SDS011;15330;51.234;6.754;2022-07-15T11:19:53;3.85;;;1.42;;
28003;SDS011;15330;51.234;6.754;2022-07-15T11:22:20;3.38;;;1.30;;
28003;SDS011;15330;51.234;6.754;2022-07-15T11:24:47;5.22;;;1.52;;
28003;SDS011;15330;51.234;6.754;2022-07-15T11:27:13;5.30;;;1.40;;
28003;SDS011;15330;51.234;6.754;2022-07-15T11:32:21;4.93;;;1.35;;
28003;SDS011;15330;51.234;6.754;2022-07-15T11:34:52;5.15;;;1.52;;
28003;SDS011;15330;51.234;6.754;2022-07-15T11:37:23;5.55;;;1.90;;
28003;SDS011;15330;51.234;6.754;2022-07-15T11:40:06;3.30;;;1.38;;
28003;SDS011;15330;51.234;6.754;2022-07-15T11:42:32;4.00;;;1.20;;
28003;SDS011;15330;51.234;6.754;2022-07-15T11:45:30;4.38;;;0.95;;
28003;SDS011;15330;51.234;6.754;2022-07-15T11:47:57;7.22;;;1.48;;
28003;SDS011;15330;51.234;6.754;2022-07-15T11:50:23;3.20;;;1.23;;
28003;SDS011;15330;51.234;6.754;2022-07-15T11:52:48;4.35;;;1.23;;
28003;SDS011;15330;51.234;6.754;2022-07-15T11:55:16;2.88;;;1.40;;
28003;SDS011;15330;51.234;6.754;2022-07-15T11:57:43;5.72;;;1.83;;
28003;SDS011;15330;51.234;6.754;2022-07-15T12:00:12;5.63;;;1.83;;
28003;SDS011;15330;51.234;6.754;2022-07-15T12:02:39;5.07;;;1.33;;
28003;SDS011;15330;51.234;6.754;2022-07-15T12:05:05;6.47;;;3.47;;
28003;SDS011;15330;51.234;6.754;2022-07-15T12:07:45;7.95;;;4.47;;
28003;SDS011;15330;51.234;6.754;2022-07-15T12:10:13;6.40;;;3.22;;
28003;SDS011;15330;51.234;6.754;2022-07-15T12:12:40;6.88;;;1.35;;
28003;SDS011;15330;51.234;6.754;2022-07-15T12:15:06;3.53;;;1.90;;
28003;SDS011;15330;51.234;6.754;2022-07-15T12:17:32;3.97;;;0.95;;
28003;SDS011;15330;51.234;6.754;2022-07-15T12:19:58;4.10;;;1.38;;
28003;SDS011;15330;51.234;6.754;2022-07-15T12:22:27;4.28;;;1.52;;
28003;SDS011;15330;51.234;6.754;2022-07-15T12:24:53;3.45;;;1.00;;
28003;SDS011;15330;51.234;6.754;2022-07-15T12:27:34;2.90;;;1.13;;
28003;SDS011;15330;51.234;6.754;2022-07-15T12:30:02;5.25;;;1.15;;
28003;SDS011;15330;51.234;6.754;2022-07-15T12:32:32;2.95;;;0.90;;
28003;SDS011;15330;51.234;6.754;2022-07-15T12:34:58;4.18;;;0.90;;
28003;SDS011;15330;51.234;6.754;2022-07-15T12:37:26;5.07;;;1.20;;
28003;SDS011;15330;51.234;6.754;2022-07-15T12:42:47;1.25;;;0.70;;
28003;SDS011;15330;51.234;6.754;2022-07-15T12:50:30;10.50;;;5.00;;
28003;SDS011;15330;51.234;6.754;2022-07-15T12:52:58;3.63;;;1.77;;
28003;SDS011;15330;51.234;6.754;2022-07-15T12:55:24;5.18;;;0.90;;
28003;SDS011;15330;51.234;6.754;2022-07-15T12:58:02;2.17;;;0.85;;
28003;SDS011;15330;51.234;6.754;2022-07-15T13:00:32;3.22;;;1.35;;
28003;SDS011;15330;51.234;6.754;2022-07-15T13:05:23;4.77;;;1.73;;
28003;SDS011;15330;51.234;6.754;2022-07-15T13:07:50;6.90;;;1.40;;
28003;SDS011;15330;51.234;6.754;2022-07-15T13:10:15;4.88;;;1.02;;
28003;SDS011;15330;51.234;6.754;2022-07-15T13:12:41;6.55;;;1.85;;
28003;SDS011;15330;51.234;6.754;2022-07-15T13:15:06;3.67;;;1.35;;
28003;SDS011;15330;51.234;6.754;2022-07-15T13:17:33;3.58;;;1.13;;
28003;SDS011;15330;51.234;6.754;2022-07-15T13:20:00;2.58;;;1.00;;
28003;SDS011;15330;51.234;6.754;2022-07-15T13:22:26;3.70;;;0.90;;
28003;SDS011;15330;51.234;6.754;2022-07-15T13:24:53;3.30;;;1.00;;
28003;SDS011;15330;51.234;6.754;2022-07-15T13:27:19;7.60;;;4.18;;
28003;SDS011;15330;51.234;6.754;2022-07-15T13:29:44;17.80;;;10.50;;
28003;SDS011;15330;51.234;6.754;2022-07-15T13:32:10;3.33;;;1.52;;
28003;SDS011;15330;51.234;6.754;2022-07-15T13:34:35;5.00;;;1.65;;
28003;SDS011;15330;51.234;6.754;2022-07-15T13:37:01;4.47;;;1.40;;
28003;SDS011;15330;51.234;6.754;2022-07-15T13:39:26;4.70;;;1.30;;
28003;SDS011;15330;51.234;6.754;2022-07-15T13:41:51;3.53;;;0.90;;
28003;SDS011;15330;51.234;6.754;2022-07-15T13:44:17;4.68;;;1.25;;
28003;SDS011;15330;51.234;6.754;2022-07-15T13:46:42;5.30;;;1.40;;
28003;SDS011;15330;51.234;6.754;2022-07-15T13:49:07;4.40;;;1.73;;
28003;SDS011;15330;51.234;6.754;2022-07-15T13:51:33;8.65;;;0.90;;
28003;SDS011;15330;51.234;6.754;2022-07-15T13:54:01;4.32;;;1.23;;
28003;SDS011;15330;51.234;6.754;2022-07-15T13:56:26;6.93;;;1.75;;
28003;SDS011;15330;51.234;6.754;2022-07-15T13:58:52;3.17;;;1.08;;
28003;SDS011;15330;51.234;6.754;2022-07-15T14:01:22;8.93;;;1.40;;
28003;SDS011;15330;51.234;6.754;2022-07-15T14:03:48;4.50;;;1.13;;
28003;SDS011;15330;51.234;6.754;2022-07-15T14:06:13;2.83;;;1.17;;
28003;SDS011;15330;51.234;6.754;2022-07-15T14:08:39;4.20;;;1.10;;
28003;SDS011;15330;51.234;6.754;2022-07-15T14:11:04;5.00;;;0.90;;
28003;SDS011;15330;51.234;6.754;2022-07-15T14:13:30;7.90;;;1.33;;
28003;SDS011;15330;51.234;6.754;2022-07-15T14:15:55;3.28;;;1.02;;
28003;SDS011;15330;51.234;6.754;2022-07-15T14:18:21;4.45;;;1.00;;
28003;SDS011;15330;51.234;6.754;2022-07-15T14:21:06;3.45;;;1.15;;
28003;SDS011;15330;51.234;6.754;2022-07-15T14:23:32;2.88;;;1.30;;
28003;SDS011;15330;51.234;6.754;2022-07-15T14:25:57;3.47;;;1.30;;
28003;SDS011;15330;51.234;6.754;2022-07-15T14:28:22;3.90;;;1.23;;
28003;SDS011;15330;51.234;6.754;2022-07-15T14:30:48;2.80;;;1.10;;
28003;SDS011;15330;51.234;6.754;2022-07-15T14:33:13;3.60;;;0.95;;
28003;SDS011;15330;51.234;6.754;2022-07-15T14:35:39;5.43;;;1.10;;
28003;SDS011;15330;51.234;6.754;2022-07-15T14:38:04;5.03;;;1.38;;
28003;SDS011;15330;51.234;6.754;2022-07-15T14:40:30;4.90;;;1.20;;
28003;SDS011;15330;51.234;6.754;2022-07-15T14:42:55;3.30;;;1.08;;
28003;SDS011;15330;51.234;6.754;2022-07-15T14:45:21;4.88;;;1.50;;
28003;SDS011;15330;51.234;6.754;2022-07-15T14:47:46;15.68;;;7.10;;
28003;SDS011;15330;51.234;6.754;2022-07-15T14:50:13;10.52;;;7.47;;
28003;SDS011;15330;51.234;6.754;2022-07-15T14:52:38;7.10;;;4.60;;
28003;SDS011;15330;51.234;6.754;2022-07-15T14:55:04;2.75;;;1.20;;
28003;SDS011;15330;51.234;6.754;2022-07-15T14:57:30;4.03;;;1.50;;
28003;SDS011;15330;51.234;6.754;2022-07-15T14:59:55;5.35;;;2.25;;
28003;SDS011;15330;51.234;6.754;2022-07-15T15:02:21;7.22;;;1.17;;
28003;SDS011;15330;51.234;6.754;2022-07-15T15:04:47;4.22;;;1.67;;
28003;SDS011;15330;51.234;6.754;2022-07-15T15:07:12;4.25;;;1.48;;
28003;SDS011;15330;51.234;6.754;2022-07-15T15:09:38;5.57;;;1.50;;
28003;SDS011;15330;51.234;6.754;2022-07-15T15:12:03;3.47;;;1.38;;
28003;SDS011;15330;51.234;6.754;2022-07-15T15:14:29;5.13;;;1.25;;
28003;SDS011;15330;51.234;6.754;2022-07-15T15:16:54;3.60;;;1.75;;
28003;SDS011;15330;51.234;6.754;2022-07-15T15:19:19;4.95;;;1.50;;
28003;SDS011;15330;51.234;6.754;2022-07-15T15:21:45;3.40;;;1.20;;
28003;SDS011;15330;51.234;6.754;2022-07-15T15:24:11;3.72;;;1.02;;
28003;SDS011;15330;51.234;6.754;2022-07-15T15:26:36;4.28;;;0.90;;
28003;SDS011;15330;51.234;6.754;2022-07-15T15:29:01;2.65;;;1.27;;
28003;SDS011;15330;51.234;6.754;2022-07-15T15:31:27;4.00;;;0.98;;
28003;SDS011;15330;51.234;6.754;2022-07-15T15:33:53;5.90;;;1.33;;
28003;SDS011;15330;51.234;6.754;2022-07-15T15:36:19;6.88;;;1.10;;
28003;SDS011;15330;51.234;6.754;2022-07-15T15:38:44;3.55;;;1.17;;